createdAt,value
2022-12-24T00:01:13.580Z,975.82
2022-12-24T00:06:45.396Z,976.03
2022-12-24T00:12:16.914Z,975.83
2022-12-24T00:17:53.179Z,975.43
2022-12-24T00:23:24.669Z,975.52
2022-12-24T00:28:56.561Z,975.33
2022-12-24T00:34:28.094Z,975.61
2022-12-24T00:39:59.781Z,975.75
2022-12-24T00:45:31.570Z,975.89
2022-12-24T00:51:03.332Z,976.04
2022-12-24T00:56:35.208Z,975.85
2022-12-24T01:02:07.277Z,976.06
2022-12-24T01:07:38.573Z,976.26
2022-12-24T01:13:10.331Z,976.07
2022-12-24T01:18:48.446Z,975.68
2022-12-24T01:24:20.344Z,975.5
2022-12-24T01:29:51.842Z,975.79
2022-12-24T01:35:23.517Z,975.84
2022-12-24T01:40:55.284Z,975.07
2022-12-24T01:46:27.062Z,975.11
2022-12-24T01:51:58.854Z,975.71
2022-12-24T01:57:30.878Z,975.67
2022-12-24T02:03:02.812Z,975.89
2022-12-24T02:08:34.053Z,976.08
2022-12-24T02:14:05.680Z,975.93
2022-12-24T02:19:41.761Z,975.9
2022-12-24T02:25:13.460Z,975.97
2022-12-24T02:30:45.564Z,976.2
2022-12-24T02:36:16.844Z,976.58
2022-12-24T02:41:48.636Z,976.42
2022-12-24T02:47:20.406Z,976.81
2022-12-24T02:52:52.040Z,977.18
2022-12-24T02:58:23.811Z,977.16
2022-12-24T03:03:55.579Z,977.58
2022-12-24T03:09:27.080Z,977.96
2022-12-24T03:14:58.988Z,977.44
2022-12-24T03:20:35.249Z,977.85
2022-12-24T03:26:07.016Z,978.2
2022-12-24T03:31:38.843Z,978.18
2022-12-24T03:37:10.131Z,977.95
2022-12-24T03:42:42.141Z,978.12
2022-12-24T03:48:13.661Z,978.11
2022-12-24T03:53:45.607Z,978.1
2022-12-24T03:59:17.135Z,977.94
2022-12-24T04:04:49.019Z,978.25
2022-12-24T04:10:20.797Z,978.19
2022-12-24T04:15:52.319Z,978.68
2022-12-24T04:21:30.384Z,978.34
2022-12-24T04:27:02.139Z,978.56
2022-12-24T04:32:33.841Z,978.54
2022-12-24T04:38:05.907Z,978.53
2022-12-24T04:43:37.411Z,978.28
2022-12-24T04:49:08.849Z,978.35
2022-12-24T04:54:40.771Z,978.28
2022-12-24T05:00:12.619Z,978.38
2022-12-24T05:05:44.144Z,978.32
2022-12-24T05:11:15.919Z,978.07
2022-12-24T05:16:47.969Z,977.95
2022-12-24T05:22:25.747Z,977.42
2022-12-24T05:27:57.623Z,977.22
2022-12-24T05:33:29.464Z,976.92
2022-12-24T05:39:01.117Z,977.15
2022-12-24T05:44:32.483Z,977.2
2022-12-24T05:50:04.209Z,977.27
2022-12-24T05:55:36.439Z,976.96
2022-12-24T06:01:07.916Z,977.35
2022-12-24T06:06:39.482Z,977.63
2022-12-24T06:12:12.217Z,978.05
2022-12-24T06:17:43.132Z,977.93
2022-12-24T06:23:22.065Z,977.79
2022-12-24T06:28:52.778Z,977.67
2022-12-24T06:34:24.399Z,977.76
2022-12-24T06:39:56.362Z,977.69
2022-12-24T06:45:28.067Z,977.69
2022-12-24T06:50:59.551Z,977.67
2022-12-24T06:56:31.414Z,978.05
2022-12-24T07:02:03.355Z,978.16
2022-12-24T07:07:35.088Z,978.15
2022-12-24T07:13:06.411Z,978.19
2022-12-24T07:18:38.112Z,978.2
2022-12-24T07:24:16.207Z,977.91
2022-12-24T07:29:48.137Z,978.43
2022-12-24T07:35:19.777Z,978.87
2022-12-24T07:40:51.514Z,978.79
2022-12-24T07:46:23.539Z,978.79
2022-12-24T07:51:54.826Z,978.71
2022-12-24T07:57:26.587Z,978.55
2022-12-24T08:02:59.000Z,978.77
2022-12-24T08:08:30.050Z,978.81
2022-12-24T08:14:01.959Z,979.09
2022-12-24T08:19:33.669Z,979.43
2022-12-24T08:25:10.042Z,979.51
2022-12-24T08:30:41.671Z,979.51
2022-12-24T08:36:13.298Z,979.89
2022-12-24T08:41:44.905Z,979.91
2022-12-24T08:47:16.645Z,979.8
2022-12-24T08:52:48.437Z,979.64
2022-12-24T08:58:20.049Z,979.42
2022-12-24T09:03:52.213Z,979.34
2022-12-24T09:09:23.743Z,979.44
2022-12-24T09:15:04.659Z,979.53
2022-12-24T09:20:26.953Z,979.47
2022-12-24T09:26:03.223Z,979.57
2022-12-24T09:31:35.374Z,980.14
2022-12-24T09:37:06.729Z,980.41
2022-12-24T09:42:38.286Z,980.82
2022-12-24T09:48:10.256Z,980.77
2022-12-24T09:53:41.720Z,980.58
2022-12-24T09:59:13.337Z,980.76
2022-12-24T10:04:45.842Z,981.15
2022-12-24T10:10:16.711Z,980.92
2022-12-24T10:15:48.709Z,980.74
2022-12-24T10:21:20.282Z,980.9
2022-12-24T10:26:56.329Z,981.26
2022-12-24T10:32:28.046Z,980.96
2022-12-24T10:38:00.107Z,981.55
2022-12-24T10:43:31.513Z,981.19
2022-12-24T10:49:03.333Z,981.19
2022-12-24T10:54:35.209Z,981.38
2022-12-24T11:00:07.169Z,981.27
2022-12-24T11:05:38.777Z,981.22
2022-12-24T11:11:10.623Z,980.44
2022-12-24T11:16:41.821Z,980.81
2022-12-24T11:22:13.646Z,981.0
2022-12-24T11:27:49.873Z,980.69
2022-12-24T11:33:21.722Z,980.87
2022-12-24T11:38:53.483Z,980.88
2022-12-24T11:44:24.803Z,980.93
2022-12-24T11:50:19.289Z,981.0
2022-12-24T11:55:28.300Z,981.34
2022-12-24T12:01:00.175Z,981.54
2022-12-24T12:06:31.653Z,981.4
2022-12-24T12:12:03.691Z,981.17
2022-12-24T12:17:35.124Z,981.12
2022-12-24T12:23:07.359Z,981.03
2022-12-24T12:28:43.777Z,980.21
2022-12-24T12:34:14.695Z,980.81
2022-12-24T12:39:46.521Z,980.95
2022-12-24T12:45:18.291Z,981.17
2022-12-24T12:50:49.860Z,981.28
2022-12-24T12:56:21.581Z,981.11
2022-12-24T13:01:54.007Z,980.55
2022-12-24T13:07:25.067Z,980.33
2022-12-24T13:12:56.947Z,980.59
2022-12-24T13:18:28.390Z,980.75
2022-12-24T13:24:00.399Z,980.68
2022-12-24T13:29:36.631Z,980.68
2022-12-24T13:35:08.496Z,980.76
2022-12-24T13:40:40.008Z,980.86
2022-12-24T13:46:11.668Z,980.96
2022-12-24T13:51:43.288Z,980.47
2022-12-24T13:57:15.164Z,980.69
2022-12-24T14:02:47.178Z,980.78
2022-12-24T14:08:18.857Z,981.14
2022-12-24T14:13:50.274Z,981.05
2022-12-24T14:19:22.052Z,981.13
2022-12-24T14:24:53.620Z,980.83
2022-12-24T14:30:29.993Z,980.2
2022-12-24T14:36:01.600Z,979.66
2022-12-24T14:41:33.437Z,980.05
2022-12-24T14:47:05.574Z,980.22
2022-12-24T14:53:15.122Z,980.43
2022-12-24T14:58:08.323Z,980.26
2022-12-24T15:03:40.448Z,980.04
2022-12-24T15:09:12.271Z,979.72
2022-12-24T15:14:43.449Z,979.61
2022-12-24T15:20:15.163Z,979.57
2022-12-24T15:25:47.002Z,979.3
2022-12-24T15:31:23.756Z,979.71
2022-12-24T15:36:54.698Z,979.76
2022-12-24T15:42:26.544Z,979.59
2022-12-24T15:47:58.333Z,979.71
2022-12-24T15:53:30.087Z,979.77
2022-12-24T15:59:01.979Z,979.7
2022-12-24T16:04:33.984Z,979.61
2022-12-24T16:10:05.891Z,979.53
2022-12-24T16:15:37.094Z,979.38
2022-12-24T16:21:08.663Z,979.19
2022-12-24T16:26:40.874Z,979.35
2022-12-24T16:32:16.337Z,979.26
2022-12-24T16:37:48.261Z,979.44
2022-12-24T16:43:20.358Z,979.46
2022-12-24T16:48:51.716Z,979.9
2022-12-24T16:54:23.230Z,980.15
2022-12-24T16:59:55.560Z,980.04
2022-12-24T17:05:26.709Z,980.08
2022-12-24T17:10:58.526Z,980.13
2022-12-24T17:16:30.245Z,980.09
2022-12-24T17:22:02.053Z,979.63
2022-12-24T17:27:33.488Z,979.93
2022-12-24T17:33:15.816Z,980.2
2022-12-24T17:38:41.610Z,980.33
2022-12-24T17:44:13.109Z,980.33
2022-12-24T17:49:45.147Z,980.32
2022-12-24T17:55:16.810Z,980.21
2022-12-24T18:00:48.471Z,979.99
2022-12-24T18:06:19.977Z,979.86
2022-12-24T18:11:52.020Z,979.89
2022-12-24T18:17:23.962Z,979.53
2022-12-24T18:22:55.486Z,979.6
2022-12-24T18:28:27.351Z,979.87
2022-12-24T18:34:03.108Z,979.54
2022-12-24T18:39:35.066Z,979.91
2022-12-24T18:45:06.839Z,979.93
2022-12-24T18:50:38.304Z,980.08
2022-12-24T18:56:10.182Z,979.75
2022-12-24T19:01:42.109Z,979.96
2022-12-24T19:07:13.907Z,980.05
2022-12-24T19:12:45.293Z,979.97
2022-12-24T19:18:17.115Z,979.75
2022-12-24T19:23:48.649Z,979.88
2022-12-24T19:29:20.424Z,979.87
2022-12-24T19:34:56.554Z,979.61
2022-12-24T19:40:27.963Z,979.87
2022-12-24T19:46:00.158Z,979.45
2022-12-24T19:51:31.476Z,979.87
2022-12-24T19:57:03.208Z,979.79
2022-12-24T20:02:35.515Z,980.04
2022-12-24T20:08:06.661Z,980.17
2022-12-24T20:13:38.699Z,980.54
2022-12-24T20:19:10.226Z,980.52
2022-12-24T20:24:41.901Z,980.35
2022-12-24T20:30:13.524Z,980.04
2022-12-24T20:35:52.707Z,980.14
2022-12-24T20:41:23.319Z,980.28
2022-12-24T20:46:55.690Z,979.85
2022-12-24T20:52:27.175Z,979.9
2022-12-24T20:57:58.883Z,979.98
2022-12-24T21:03:30.826Z,979.98
2022-12-24T21:09:02.072Z,979.77
2022-12-24T21:14:33.987Z,979.82
2022-12-24T21:20:05.554Z,979.76
2022-12-24T21:25:37.611Z,980.04
2022-12-24T21:31:09.125Z,979.94
2022-12-24T21:36:45.086Z,979.84
2022-12-24T21:42:16.756Z,980.1
2022-12-24T21:47:48.689Z,979.96
2022-12-24T21:53:20.360Z,980.12
2022-12-24T21:58:52.139Z,980.23
2022-12-24T22:04:24.188Z,979.71
2022-12-24T22:09:55.626Z,979.87
2022-12-24T22:15:27.234Z,979.74
2022-12-24T22:20:59.081Z,979.25
2022-12-24T22:26:30.603Z,979.66
2022-12-24T22:32:02.290Z,979.04
2022-12-24T22:37:40.475Z,979.16
2022-12-24T22:43:12.327Z,979.03
2022-12-24T22:48:44.045Z,979.57
2022-12-24T22:54:15.645Z,979.61
2022-12-24T22:59:47.360Z,979.9
2022-12-24T23:05:19.064Z,979.56
2022-12-24T23:10:51.144Z,979.97
2022-12-24T23:16:22.677Z,979.23
2022-12-24T23:21:54.559Z,979.31
2022-12-24T23:27:26.025Z,979.3
2022-12-24T23:32:57.786Z,979.6
2022-12-24T23:38:33.779Z,979.96
2022-12-24T23:44:05.546Z,979.78
2022-12-24T23:49:37.511Z,979.49
2022-12-24T23:55:08.873Z,979.67
